Time;durP1;ratioP1;P1;durP2;ratioP2;P2;SDS_P1;SDS_P2;PMS_P1;PMS_P2;Temp;Humidity;BMP_temperature;BMP_pressure;BME280_temperature;BME280_humidity;BME280_pressure;Samples;Min_cycle;Max_cycle;Signal;HPM_P1;HPM_P2
2022/09/02 00:01:26;;;;;;;1999.90;999.90;;;14.00;99.90;;;;;;5058810;28;20047;-75
2022/09/02 00:03:56;;;;;;;1999.90;999.90;;;14.00;99.90;;;;;;5059904;28;20085;-75
2022/09/02 00:06:22;;;;;;;1999.90;999.90;;;13.90;99.90;;;;;;5050499;28;20036;-75
2022/09/02 00:08:48;;;;;;;1999.90;999.90;;;13.90;99.90;;;;;;5063574;28;20043;-75
2022/09/02 00:11:21;;;;;;;1999.90;999.90;;;13.80;99.90;;;;;;5069080;28;20344;-75
2022/09/02 00:13:48;;;;;;;1999.90;999.90;;;13.80;99.90;;;;;;5068223;28;20052;-75
2022/09/02 00:16:13;;;;;;;1999.90;999.90;;;13.80;99.90;;;;;;5070349;28;20044;-75
2022/09/02 00:18:40;;;;;;;1999.90;999.90;;;13.80;99.90;;;;;;5063952;28;20050;-75
2022/09/02 00:21:06;;;;;;;1999.90;999.90;;;13.80;99.90;;;;;;5074234;28;20095;-75
2022/09/02 00:23:32;;;;;;;1999.90;999.90;;;13.70;99.90;;;;;;5049581;28;20040;-75
2022/09/02 00:25:58;;;;;;;1999.90;999.90;;;13.70;99.90;;;;;;5066692;28;20058;-76
2022/09/02 00:28:24;;;;;;;1999.90;999.90;;;13.60;99.90;;;;;;5058979;28;20385;-75
2022/09/02 00:30:50;;;;;;;1999.90;999.90;;;13.60;99.90;;;;;;5051241;28;20056;-75
2022/09/02 00:33:16;;;;;;;1999.90;999.90;;;13.50;99.90;;;;;;5067543;28;20051;-75
2022/09/02 00:35:42;;;;;;;1999.90;999.90;;;13.50;99.90;;;;;;5052455;28;20044;-74
2022/09/02 00:38:08;;;;;;;1999.90;999.90;;;13.40;99.90;;;;;;5060011;28;20037;-75
2022/09/02 00:40:36;;;;;;;1999.90;999.90;;;13.40;99.90;;;;;;5061746;28;20040;-76
2022/09/02 00:43:06;;;;;;;1999.90;999.90;;;13.30;99.90;;;;;;5062555;28;20063;-75
2022/09/02 00:45:32;;;;;;;1999.90;999.90;;;13.30;99.90;;;;;;5059251;28;20044;-75
2022/09/02 00:47:58;;;;;;;1999.90;999.90;;;13.20;99.90;;;;;;5043434;28;20048;-75
2022/09/02 00:50:28;;;;;;;1999.90;999.90;;;13.20;99.90;;;;;;5060126;28;20040;-75
2022/09/02 00:52:59;;;;;;;1999.90;999.90;;;13.20;99.90;;;;;;5047440;28;20050;-75
2022/09/02 00:55:36;;;;;;;1999.90;999.90;;;13.10;99.90;;;;;;5064462;28;20059;-76
2022/09/02 00:58:12;;;;;;;1999.90;999.90;;;13.10;99.90;;;;;;5062111;28;20051;-75
2022/09/02 01:00:43;;;;;;;1999.90;999.90;;;13.10;99.90;;;;;;5067922;28;20044;-75
2022/09/02 01:03:11;;;;;;;1999.90;999.90;;;13.10;99.90;;;;;;5060974;28;20048;-76
2022/09/02 01:05:43;;;;;;;1999.90;999.90;;;13.10;99.90;;;;;;5075893;28;20047;-76
2022/09/02 01:08:14;;;;;;;1999.90;999.90;;;13.10;99.90;;;;;;5051735;28;20522;-75
2022/09/02 01:10:41;;;;;;;1999.90;999.90;;;13.00;99.90;;;;;;5073475;28;20286;-75
2022/09/02 01:13:11;;;;;;;1999.90;999.90;;;13.00;99.90;;;;;;5073686;28;20173;-76
2022/09/02 01:15:40;;;;;;;1999.90;999.90;;;13.00;99.90;;;;;;5056743;28;20415;-75
2022/09/02 01:18:08;;;;;;;1999.90;999.90;;;13.00;99.90;;;;;;5057102;28;20163;-75
2022/09/02 01:20:33;;;;;;;1999.90;999.90;;;13.00;99.90;;;;;;5062229;28;20107;-76
2022/09/02 01:23:01;;;;;;;1999.90;999.90;;;13.00;99.90;;;;;;5042897;28;20174;-75
2022/09/02 01:25:30;;;;;;;1999.90;999.90;;;13.00;99.90;;;;;;5063100;28;20048;-76
2022/09/02 01:28:16;;;;;;;1999.90;999.90;;;12.90;99.90;;;;;;5053241;28;20059;-76
2022/09/02 01:30:49;;;;;;;1999.90;999.90;;;12.90;99.90;;;;;;5062829;28;20052;-76
2022/09/02 01:33:16;;;;;;;1999.90;999.90;;;12.90;99.90;;;;;;5068590;28;20052;-75
2022/09/02 01:35:41;;;;;;;1999.90;999.90;;;12.90;99.90;;;;;;5066433;28;20492;-76
2022/09/02 01:38:07;;;;;;;1999.90;999.90;;;12.80;99.90;;;;;;5066728;28;20140;-76
2022/09/02 01:40:33;;;;;;;1999.90;999.90;;;12.80;99.90;;;;;;5038966;28;20468;-75
2022/09/02 01:43:02;;;;;;;1999.90;999.90;;;12.80;99.90;;;;;;5056167;28;20105;-76
2022/09/02 01:45:29;;;;;;;1999.90;999.90;;;12.70;99.90;;;;;;5077347;28;20036;-75
2022/09/02 01:47:55;;;;;;;1999.90;999.90;;;12.70;99.90;;;;;;5070040;28;20551;-75
2022/09/02 01:50:21;;;;;;;1999.90;999.90;;;12.70;99.90;;;;;;5054827;28;20156;-75
2022/09/02 01:52:46;;;;;;;1999.90;999.90;;;12.70;99.90;;;;;;5041702;28;20039;-75
2022/09/02 01:55:12;;;;;;;1999.90;999.90;;;12.70;99.90;;;;;;5059462;28;20048;-75
2022/09/02 01:57:37;;;;;;;1999.90;999.90;;;12.70;99.90;;;;;;5058046;28;20049;-75
2022/09/02 02:00:06;;;;;;;1999.90;999.90;;;12.60;99.90;;;;;;5046423;28;20036;-76
2022/09/02 02:02:32;;;;;;;1999.90;999.90;;;12.60;99.90;;;;;;5045938;28;20507;-75
2022/09/02 02:04:57;;;;;;;1999.90;999.90;;;12.60;99.90;;;;;;5058097;28;20040;-75
2022/09/02 02:07:23;;;;;;;1999.90;999.90;;;12.60;99.90;;;;;;5066065;28;20087;-76
2022/09/02 02:09:50;;;;;;;1999.90;999.90;;;12.60;99.90;;;;;;5061301;28;20072;-75
2022/09/02 02:12:16;;;;;;;1999.90;999.90;;;12.50;99.90;;;;;;5053755;28;20060;-76
2022/09/02 02:14:42;;;;;;;1999.90;999.90;;;12.50;99.90;;;;;;5069939;28;20147;-76
2022/09/02 02:17:08;;;;;;;1999.90;999.90;;;12.50;99.90;;;;;;5067464;28;20043;-76
2022/09/02 02:19:34;;;;;;;1999.90;999.90;;;12.40;99.90;;;;;;5071780;28;20044;-75
2022/09/02 02:22:00;;;;;;;1999.90;999.90;;;12.40;99.90;;;;;;5061252;28;20483;-76
2022/09/02 02:24:26;;;;;;;1999.90;999.90;;;12.40;99.90;;;;;;5068750;28;20047;-76
2022/09/02 02:26:52;;;;;;;1999.90;999.90;;;12.40;99.90;;;;;;5044462;28;20035;-76
2022/09/02 02:29:18;;;;;;;1999.90;999.90;;;12.40;99.90;;;;;;5062095;28;20040;-75
2022/09/02 02:31:44;;;;;;;1999.90;999.90;;;12.30;99.90;;;;;;5065732;28;20458;-76
2022/09/02 02:34:10;;;;;;;1999.90;999.90;;;12.40;99.90;;;;;;5051260;28;20491;-75
2022/09/02 02:36:37;;;;;;;1999.90;999.90;;;12.30;99.90;;;;;;5047749;28;20044;-76
2022/09/02 02:39:06;;;;;;;1999.90;999.90;;;12.30;99.90;;;;;;5054203;28;20143;-75
2022/09/02 02:41:31;;;;;;;1999.90;999.90;;;12.40;99.90;;;;;;5068592;28;20040;-76
2022/09/02 02:43:57;;;;;;;1999.90;999.90;;;12.30;99.90;;;;;;5061188;28;20412;-75
2022/09/02 02:46:23;;;;;;;1999.90;999.90;;;12.30;99.90;;;;;;5056660;28;20041;-75
2022/09/02 02:48:49;;;;;;;1999.90;999.90;;;12.30;99.90;;;;;;5049172;28;20170;-75
2022/09/02 02:51:14;;;;;;;1999.90;999.90;;;12.30;99.90;;;;;;5056995;28;20423;-75
2022/09/02 02:53:40;;;;;;;1999.90;999.90;;;12.30;99.90;;;;;;5070297;28;20482;-76
2022/09/02 02:56:06;;;;;;;1999.90;999.90;;;12.30;99.90;;;;;;5059567;28;20135;-75
2022/09/02 02:58:33;;;;;;;1999.90;999.90;;;12.30;99.90;;;;;;5057227;28;20503;-75
2022/09/02 03:00:59;;;;;;;1999.90;999.90;;;12.20;99.90;;;;;;5063122;28;20082;-75
2022/09/02 03:03:25;;;;;;;1999.90;999.90;;;12.20;99.90;;;;;;5055127;28;20054;-75
2022/09/02 03:05:51;;;;;;;1999.90;999.90;;;12.20;99.90;;;;;;5045250;28;20435;-75
2022/09/02 03:08:19;;;;;;;1999.90;999.90;;;12.20;99.90;;;;;;5065861;28;20081;-75
2022/09/02 03:10:53;;;;;;;1999.90;999.90;;;12.30;99.90;;;;;;5053186;28;20404;-75
2022/09/02 03:13:20;;;;;;;1999.90;999.90;;;12.30;99.90;;;;;;5052684;28;20050;-75
2022/09/02 03:15:46;;;;;;;1999.90;999.90;;;12.20;99.90;;;;;;5053321;28;20040;-75
2022/09/02 03:18:12;;;;;;;1999.90;999.90;;;12.20;99.90;;;;;;5066881;28;20055;-75
2022/09/02 03:20:39;;;;;;;1999.90;999.90;;;12.20;99.90;;;;;;5068226;28;20039;-75
2022/09/02 03:23:06;;;;;;;1999.90;999.90;;;12.20;99.90;;;;;;5067409;28;20043;-75
2022/09/02 03:25:33;;;;;;;1999.90;999.90;;;12.20;99.90;;;;;;5058181;28;20557;-75
2022/09/02 03:28:00;;;;;;;1999.90;999.90;;;12.20;99.90;;;;;;5054342;28;20040;-75
2022/09/02 03:30:29;;;;;;;1999.90;999.90;;;12.10;99.90;;;;;;5063786;28;20075;-75
2022/09/02 03:32:56;;;;;;;1999.90;999.90;;;12.10;99.90;;;;;;5064675;28;20130;-75
2022/09/02 03:35:22;;;;;;;1999.90;999.90;;;12.10;99.90;;;;;;5058713;28;20059;-75
2022/09/02 03:37:50;;;;;;;1999.90;999.90;;;12.10;99.90;;;;;;5071676;28;20054;-75
2022/09/02 03:40:20;;;;;;;1999.90;999.90;;;12.10;99.90;;;;;;5067331;28;20097;-75
2022/09/02 03:42:46;;;;;;;1999.90;999.90;;;12.10;99.90;;;;;;5045774;28;20058;-76
2022/09/02 03:45:14;;;;;;;1999.90;999.90;;;12.10;99.90;;;;;;5043651;28;20043;-75
2022/09/02 03:47:44;;;;;;;1999.90;999.90;;;12.10;99.90;;;;;;5037566;28;20461;-76
2022/09/02 03:50:10;;;;;;;1999.90;999.90;;;12.10;99.90;;;;;;5052425;28;20087;-75
2022/09/02 03:52:36;;;;;;;1999.90;999.90;;;12.10;99.90;;;;;;5060409;28;20368;-75
2022/09/02 03:55:04;;;;;;;1999.90;999.90;;;12.10;99.90;;;;;;5069924;28;20066;-75
2022/09/02 03:57:30;;;;;;;1999.90;999.90;;;12.10;99.90;;;;;;5064974;28;20123;-75
2022/09/02 03:59:55;;;;;;;1999.90;999.90;;;12.10;99.90;;;;;;5069642;28;20123;-76
2022/09/02 04:02:21;;;;;;;1999.90;999.90;;;12.00;99.90;;;;;;5066775;28;20094;-75
2022/09/02 04:04:46;;;;;;;1999.90;999.90;;;12.00;99.90;;;;;;5070377;28;20405;-75
2022/09/02 04:07:12;;;;;;;1999.90;999.90;;;12.00;99.90;;;;;;5071209;28;20047;-76
2022/09/02 04:09:38;;;;;;;1999.90;999.90;;;12.00;99.90;;;;;;5056034;28;20045;-75
2022/09/02 04:12:04;;;;;;;1999.90;999.90;;;11.90;99.90;;;;;;5066593;28;20564;-76
2022/09/02 04:14:30;;;;;;;1999.90;999.90;;;11.90;99.90;;;;;;5057944;28;20135;-75
2022/09/02 04:16:56;;;;;;;1999.90;999.90;;;11.80;99.90;;;;;;5063377;28;20136;-75
2022/09/02 04:19:21;;;;;;;1999.90;999.90;;;11.80;99.90;;;;;;5043874;28;20036;-75
2022/09/02 04:21:47;;;;;;;1999.90;999.90;;;11.80;99.90;;;;;;5057887;28;20032;-75
2022/09/02 04:24:13;;;;;;;1999.90;999.90;;;11.80;99.90;;;;;;5042637;28;20564;-75
2022/09/02 04:26:39;;;;;;;1999.90;999.90;;;11.80;99.90;;;;;;5047368;28;20036;-75
2022/09/02 04:29:06;;;;;;;1999.90;999.90;;;11.80;99.90;;;;;;5053783;28;20044;-75
2022/09/02 04:31:32;;;;;;;1999.90;999.90;;;11.80;99.90;;;;;;5056209;28;20068;-75
2022/09/02 04:33:58;;;;;;;1999.90;999.90;;;11.70;99.90;;;;;;5056563;28;20052;-75
2022/09/02 04:36:25;;;;;;;1999.90;999.90;;;11.70;99.90;;;;;;5047559;28;20098;-75
2022/09/02 04:38:51;;;;;;;1999.90;999.90;;;11.70;99.90;;;;;;5064009;28;20036;-75
2022/09/02 04:41:23;;;;;;;1999.90;999.90;;;11.60;99.90;;;;;;5059661;28;20051;-75
2022/09/02 04:43:51;;;;;;;1999.90;999.90;;;11.60;99.90;;;;;;5097891;28;20048;-75
2022/09/02 04:46:17;;;;;;;1999.90;999.90;;;11.60;99.90;;;;;;5057903;28;20066;-75
2022/09/02 04:48:44;;;;;;;1999.90;999.90;;;11.60;99.90;;;;;;5071178;28;20044;-75
2022/09/02 04:51:12;;;;;;;1999.90;999.90;;;11.60;99.90;;;;;;5058273;28;20584;-76
2022/09/02 04:53:39;;;;;;;1999.90;999.90;;;11.50;99.90;;;;;;5061490;28;20051;-75
2022/09/02 04:56:10;;;;;;;1999.90;999.90;;;11.50;99.90;;;;;;5067915;28;20040;-75
2022/09/02 04:58:37;;;;;;;1999.90;999.90;;;11.50;99.90;;;;;;5091982;28;20691;-76
2022/09/02 05:01:07;;;;;;;1999.90;999.90;;;11.50;99.90;;;;;;5062901;28;20075;-75
2022/09/02 05:03:33;;;;;;;1999.90;999.90;;;11.50;99.90;;;;;;5060259;28;20032;-75
2022/09/02 05:06:04;;;;;;;1999.90;999.90;;;11.50;99.90;;;;;;5052594;28;20040;-75
2022/09/02 05:08:30;;;;;;;1999.90;999.90;;;11.50;99.90;;;;;;5060182;28;20040;-75
2022/09/02 05:10:56;;;;;;;1999.90;999.90;;;11.50;99.90;;;;;;5059843;28;20098;-75
2022/09/02 05:13:22;;;;;;;1999.90;999.90;;;11.50;99.90;;;;;;5083082;28;20047;-75
2022/09/02 05:15:48;;;;;;;1999.90;999.90;;;11.50;99.90;;;;;;5066044;28;20508;-75
2022/09/02 05:18:14;;;;;;;1999.90;999.90;;;11.50;99.90;;;;;;5044762;28;20120;-75
2022/09/02 05:20:42;;;;;;;1999.90;999.90;;;11.50;99.90;;;;;;5060770;28;20499;-75
2022/09/02 05:23:11;;;;;;;1999.90;999.90;;;11.60;99.90;;;;;;5061192;28;20498;-75
2022/09/02 05:25:38;;;;;;;1999.90;999.90;;;11.60;99.90;;;;;;5052445;28;20392;-75
2022/09/02 05:28:05;;;;;;;1999.90;999.90;;;11.60;99.90;;;;;;5057676;28;20054;-74
2022/09/02 05:30:31;;;;;;;1999.90;999.90;;;11.70;99.90;;;;;;5040026;28;20052;-75
2022/09/02 05:32:56;;;;;;;1999.90;999.90;;;11.70;99.90;;;;;;5043115;28;20039;-75
2022/09/02 05:35:22;;;;;;;1999.90;999.90;;;11.70;99.90;;;;;;5059251;28;20040;-75
2022/09/02 05:37:48;;;;;;;1999.90;999.90;;;11.70;99.90;;;;;;5042403;28;20043;-75
2022/09/02 05:40:13;;;;;;;1999.90;999.90;;;11.80;99.90;;;;;;5052116;28;20032;-75
2022/09/02 05:42:39;;;;;;;1999.90;999.90;;;11.80;99.90;;;;;;5054090;28;20047;-75
2022/09/02 05:45:06;;;;;;;1999.90;999.90;;;11.90;99.90;;;;;;5069513;28;20043;-75
2022/09/02 05:47:34;;;;;;;1999.90;999.90;;;12.00;99.90;;;;;;5064419;28;20119;-75
2022/09/02 05:50:01;;;;;;;1999.90;999.90;;;12.00;99.90;;;;;;5058623;28;20057;-75
2022/09/02 05:52:27;;;;;;;1999.90;999.90;;;12.10;99.90;;;;;;5069322;28;20509;-75
2022/09/02 05:54:54;;;;;;;1999.90;999.90;;;12.10;99.90;;;;;;5063136;28;20384;-75
2022/09/02 05:57:20;;;;;;;1999.90;999.90;;;12.20;99.90;;;;;;5063679;28;20032;-75
2022/09/02 05:59:47;;;;;;;1999.90;999.90;;;12.20;99.90;;;;;;5047910;28;20411;-75
2022/09/02 06:02:16;;;;;;;1999.90;999.90;;;12.40;99.90;;;;;;5058657;28;20050;-75
2022/09/02 06:04:47;;;;;;;1999.90;999.90;;;12.40;99.90;;;;;;5061912;28;20039;-75
2022/09/02 06:07:15;;;;;;;1999.90;999.90;;;12.50;99.90;;;;;;5064313;28;20089;-75
2022/09/02 06:09:43;;;;;;;1999.90;999.90;;;12.50;99.90;;;;;;5055532;28;20044;-75
2022/09/02 06:12:13;;;;;;;1999.90;999.90;;;12.60;99.90;;;;;;5060983;28;20494;-75
2022/09/02 06:14:40;;;;;;;1999.90;999.90;;;12.70;99.90;;;;;;5053414;28;20040;-75
2022/09/02 06:17:06;;;;;;;1999.90;999.90;;;12.80;99.90;;;;;;5052735;28;20092;-75
2022/09/02 06:19:33;;;;;;;1999.90;999.90;;;12.90;99.90;;;;;;5055080;28;20146;-75
2022/09/02 06:21:59;;;;;;;1999.90;999.90;;;13.00;99.90;;;;;;5053952;28;20071;-75
2022/09/02 06:24:26;;;;;;;1999.90;999.90;;;13.10;99.90;;;;;;5045491;28;20050;-75
2022/09/02 06:26:52;;;;;;;1999.90;999.90;;;13.20;99.90;;;;;;5052388;28;20081;-75
2022/09/02 06:29:19;;;;;;;1999.90;999.90;;;13.20;99.90;;;;;;5055356;28;20040;-75
2022/09/02 06:31:47;;;;;;;1999.90;999.90;;;13.40;99.90;;;;;;5061336;28;20056;-75
2022/09/02 06:34:15;;;;;;;1999.90;999.90;;;13.50;99.90;;;;;;5071965;28;20048;-75
2022/09/02 06:36:43;;;;;;;1999.90;999.90;;;13.60;99.90;;;;;;5070688;28;20074;-75
2022/09/02 06:39:11;;;;;;;1999.90;999.90;;;13.70;99.90;;;;;;5068280;28;20079;-75
2022/09/02 06:41:39;;;;;;;1999.90;999.90;;;13.80;99.90;;;;;;5079500;28;20051;-75
2022/09/02 06:44:05;;;;;;;1999.90;999.90;;;14.00;99.90;;;;;;5054702;28;20035;-75
2022/09/02 06:46:35;;;;;;;1999.90;999.90;;;14.00;99.90;;;;;;5051138;28;20563;-75
2022/09/02 06:49:01;;;;;;;1999.90;999.90;;;14.20;99.90;;;;;;5071375;28;20042;-76
2022/09/02 06:51:31;;;;;;;1999.90;999.90;;;14.20;99.90;;;;;;5068804;28;20404;-75
2022/09/02 06:53:58;;;;;;;1999.90;999.90;;;14.30;99.90;;;;;;5062099;28;20095;-75
2022/09/02 06:56:25;;;;;;;1999.90;999.90;;;14.40;99.90;;;;;;5071022;28;20048;-75
2022/09/02 06:58:51;;;;;;;1999.90;999.90;;;14.60;99.90;;;;;;5046344;28;20487;-75
2022/09/02 07:01:25;;;;;;;1999.90;999.90;;;14.60;99.90;;;;;;5071515;28;20597;-75
2022/09/02 07:06:39;;;;;;;1999.90;999.90;;;14.90;99.90;;;;;;5066054;28;20428;-75
2022/09/02 07:09:06;;;;;;;1999.90;999.90;;;15.00;99.90;;;;;;5054674;28;20040;-75
2022/09/02 07:11:33;;;;;;;1999.90;999.90;;;15.10;99.90;;;;;;5039264;28;20075;-75
2022/09/02 07:14:00;;;;;;;1999.90;999.90;;;15.20;99.90;;;;;;5054583;28;20433;-75
2022/09/02 07:16:28;;;;;;;1999.90;999.90;;;15.30;99.90;;;;;;5054423;28;20048;-74
2022/09/02 07:18:54;;;;;;;1999.90;999.90;;;15.50;99.90;;;;;;5087196;28;20394;-75
2022/09/02 07:21:19;;;;;;;1999.90;999.90;;;15.60;99.90;;;;;;5061819;28;20115;-75
2022/09/02 07:23:45;;;;;;;1999.90;999.90;;;15.70;99.90;;;;;;5069976;28;20119;-75
2022/09/02 07:26:13;;;;;;;1999.90;999.90;;;15.80;99.90;;;;;;5070892;28;20043;-76
2022/09/02 07:28:39;;;;;;;1999.90;999.90;;;15.90;99.90;;;;;;5052022;28;20090;-75
2022/09/02 07:31:10;;;;;;;1999.90;999.90;;;16.00;99.90;;;;;;5065774;28;20092;-75
2022/09/02 07:33:36;;;;;;;1999.90;999.90;;;16.10;99.90;;;;;;5074978;28;20083;-76
2022/09/02 07:36:04;;;;;;;1999.90;999.90;;;16.30;99.90;;;;;;5052975;28;20032;-75
2022/09/02 07:38:31;;;;;;;1999.90;999.90;;;16.40;99.90;;;;;;5068655;28;20047;-75
2022/09/02 07:40:59;;;;;;;1999.90;999.90;;;16.50;99.90;;;;;;5053853;28;20059;-75
2022/09/02 07:43:26;;;;;;;1999.90;999.90;;;16.60;99.90;;;;;;5046814;28;20039;-75
2022/09/02 07:45:54;;;;;;;1999.90;999.90;;;16.70;99.90;;;;;;5056135;28;20534;-75
2022/09/02 07:48:21;;;;;;;1999.90;999.90;;;16.80;99.90;;;;;;5068403;28;20070;-75
2022/09/02 07:50:47;;;;;;;1999.90;999.90;;;16.80;99.90;;;;;;5054170;28;20485;-75
2022/09/02 07:53:15;;;;;;;1999.90;999.90;;;16.90;99.90;;;;;;5052878;28;20036;-75
2022/09/02 07:55:41;;;;;;;1999.90;999.90;;;17.00;99.90;;;;;;5052277;28;20101;-76
2022/09/02 07:58:07;;;;;;;1999.90;999.90;;;17.10;99.90;;;;;;5053679;28;20126;-75
2022/09/02 08:00:34;;;;;;;1999.90;999.90;;;17.20;99.90;;;;;;5053805;28;20043;-75
2022/09/02 08:03:00;;;;;;;1999.90;999.90;;;17.30;99.90;;;;;;5050430;28;20038;-75
2022/09/02 08:05:27;;;;;;;1999.90;999.90;;;17.40;99.90;;;;;;5038196;28;20254;-75
2022/09/02 08:07:52;;;;;;;1999.90;999.90;;;17.50;99.90;;;;;;5063759;28;20044;-75
2022/09/02 08:10:19;;;;;;;1999.90;999.90;;;17.60;99.90;;;;;;5051938;28;20093;-75
2022/09/02 08:12:46;;;;;;;1999.90;999.90;;;17.70;99.90;;;;;;5049984;28;20180;-76
2022/09/02 08:15:12;;;;;;;1999.90;999.90;;;17.80;99.90;;;;;;5057413;28;20044;-75
2022/09/02 08:17:39;;;;;;;1999.90;999.90;;;17.90;99.90;;;;;;5068464;28;20048;-76
2022/09/02 08:20:11;;;;;;;1999.90;999.90;;;17.90;99.90;;;;;;5062703;28;20124;-75
2022/09/02 08:22:37;;;;;;;1999.90;999.90;;;18.00;99.90;;;;;;5081385;28;20043;-75
2022/09/02 08:25:03;;;;;;;1999.90;999.90;;;18.10;99.90;;;;;;5069345;28;20598;-76
2022/09/02 08:27:31;;;;;;;1999.90;999.90;;;18.30;99.90;;;;;;5064949;28;20042;-75
2022/09/02 08:29:57;;;;;;;1999.90;999.90;;;18.40;99.90;;;;;;5056785;28;20040;-76
2022/09/02 08:32:23;;;;;;;1999.90;999.90;;;18.50;99.90;;;;;;5105505;28;20044;-75
2022/09/02 08:34:49;;;;;;;1999.90;999.90;;;18.50;99.90;;;;;;5072519;28;20526;-76
2022/09/02 08:37:17;;;;;;;1999.90;999.90;;;18.70;99.90;;;;;;5057061;28;20036;-76
2022/09/02 08:39:46;;;;;;;1999.90;999.90;;;18.70;99.90;;;;;;5075395;28;20044;-76
2022/09/02 08:42:31;;;;;;;1999.90;999.90;;;18.90;99.90;;;;;;5063595;28;20076;-76
2022/09/02 08:45:12;;;;;;;1999.90;999.90;;;19.10;99.90;;;;;;5053586;28;20032;-76
2022/09/02 08:47:39;;;;;;;1999.90;999.90;;;19.30;99.90;;;;;;5067868;28;20377;-75
2022/09/02 08:50:14;;;;;;;1999.90;999.90;;;19.50;99.80;;;;;;5073557;28;20032;-76
2022/09/02 08:52:43;;;;;;;1999.90;999.90;;;19.90;98.40;;;;;;5056741;28;20040;-75
2022/09/02 08:55:17;;;;;;;1999.90;999.90;;;20.80;98.40;;;;;;5053010;28;20408;-76
2022/09/02 08:57:44;;;;;;;1999.90;999.90;;;21.50;95.70;;;;;;5071163;28;20085;-76
2022/09/02 09:00:10;;;;;;;1999.90;999.90;;;22.20;94.60;;;;;;5067628;28;20561;-76
2022/09/02 09:03:14;;;;;;;1999.90;999.90;;;23.10;93.40;;;;;;5056319;28;20479;-75
2022/09/02 09:06:02;;;;;;;1999.90;999.90;;;23.70;92.50;;;;;;5056533;28;20089;-76
2022/09/02 09:08:50;;;;;;;1999.90;999.90;;;24.40;86.40;;;;;;5056849;28;20040;-76
2022/09/02 09:11:28;;;;;;;1999.90;999.90;;;25.00;85.60;;;;;;5066016;28;20056;-76
2022/09/02 09:14:08;;;;;;;1999.90;999.90;;;25.20;81.40;;;;;;5088163;28;20040;-76
2022/09/02 09:16:41;;;;;;;1999.90;999.90;;;25.40;81.90;;;;;;5073167;28;20115;-76
2022/09/02 09:19:30;;;;;;;1999.90;999.90;;;25.70;77.60;;;;;;5070973;28;20059;-76
2022/09/02 09:21:59;;;;;;;1999.90;999.90;;;25.40;71.70;;;;;;5056562;28;20089;-76
2022/09/02 09:24:26;;;;;;;1999.90;999.90;;;25.50;74.60;;;;;;5073281;28;20063;-76
2022/09/02 09:26:54;;;;;;;1999.90;999.90;;;25.70;73.20;;;;;;5069464;28;20036;-76
2022/09/02 09:29:19;;;;;;;1999.90;999.90;;;25.80;73.50;;;;;;5073242;28;20526;-76
2022/09/02 09:31:54;;;;;;;1999.90;999.90;;;26.10;71.20;;;;;;5054678;28;20060;-76
2022/09/02 09:34:20;;;;;;;1999.90;999.90;;;26.30;70.70;;;;;;5066424;28;20047;-76
2022/09/02 09:36:52;;;;;;;1999.90;999.90;;;26.40;68.70;;;;;;5049787;28;20044;-74
2022/09/02 09:39:29;;;;;;;;;;;26.60;68.40;;;;;;5072977;28;20451;-74
2022/09/02 09:42:07;;;;;;;1999.90;999.90;;;26.80;68.30;;;;;;5055643;28;20371;-73
2022/09/02 09:44:38;;;;;;;1999.90;999.90;;;26.80;66.70;;;;;;5051818;28;20040;-74
2022/09/02 09:47:07;;;;;;;1999.90;999.90;;;26.90;66.70;;;;;;5066348;28;20043;-74
2022/09/02 09:49:33;;;;;;;1999.90;999.90;;;27.00;66.90;;;;;;5055001;28;20399;-74
2022/09/02 09:51:59;;;;;;;1999.90;999.90;;;27.10;67.00;;;;;;5052427;28;20038;-74
2022/09/02 09:54:26;;;;;;;1999.90;999.90;;;27.20;66.70;;;;;;5056260;28;20036;-74
2022/09/02 09:56:54;;;;;;;1999.90;999.90;;;27.10;62.00;;;;;;5056235;28;20107;-74
2022/09/02 09:59:40;;;;;;;1999.90;999.90;;;26.90;63.70;;;;;;5059465;28;20083;-74
2022/09/02 10:02:16;;;;;;;1999.90;999.90;;;26.80;62.90;;;;;;5069354;28;20075;-75
2022/09/02 10:04:41;;;;;;;1999.90;999.90;;;26.70;63.70;;;;;;5069691;28;20063;-74
2022/09/02 10:07:12;;;;;;;1999.90;999.90;;;26.80;63.20;;;;;;5056167;28;20585;-74
2022/09/02 10:09:37;;;;;;;1999.90;999.90;;;26.80;61.50;;;;;;5072244;28;20145;-74
2022/09/02 10:12:09;;;;;;;1999.90;999.90;;;26.60;61.70;;;;;;5051054;28;20119;-74
2022/09/02 10:14:43;;;;;;;1999.90;999.90;;;26.50;61.00;;;;;;5055481;28;20048;-74
2022/09/02 10:17:42;;;;;;;1999.90;999.90;;;26.30;58.40;;;;;;5069336;28;20597;-74
2022/09/02 10:20:42;;;;;;;1999.90;999.90;;;26.10;60.70;;;;;;5084588;28;20071;-74
2022/09/02 10:23:15;;;;;;;1999.90;999.90;;;26.10;60.20;;;;;;5090337;28;20082;-73
2022/09/02 10:26:19;;;;;;;1999.90;999.90;;;26.20;60.70;;;;;;5067597;28;20037;-75
2022/09/02 10:29:05;;;;;;;1999.90;999.90;;;26.20;61.30;;;;;;5066230;28;20170;-74
2022/09/02 10:31:50;;;;;;;1999.90;999.90;;;26.30;61.40;;;;;;5062740;28;20063;-74
2022/09/02 10:34:32;;;;;;;1999.90;999.90;;;26.30;60.80;;;;;;5071499;28;20044;-74
2022/09/02 10:36:58;;;;;;;1999.90;999.90;;;26.40;59.10;;;;;;5065008;28;20044;-74
2022/09/02 10:39:42;;;;;;;1999.90;999.90;;;26.40;61.00;;;;;;5063321;28;20044;-74
2022/09/02 10:42:26;;;;;;;1999.90;999.90;;;26.70;59.20;;;;;;5051558;28;20047;-74
2022/09/02 10:45:16;;;;;;;1999.90;999.90;;;26.70;59.90;;;;;;5064094;28;20128;-74
2022/09/02 10:48:08;;;;;;;1999.90;999.90;;;26.70;59.20;;;;;;5051054;28;20500;-74
2022/09/02 10:50:40;;;;;;;1999.90;999.90;;;26.70;59.00;;;;;;5072013;28;20100;-73
2022/09/02 10:53:58;;;;;;;1999.90;999.90;;;26.60;58.60;;;;;;5063613;28;20294;-74
2022/09/02 10:56:44;;;;;;;1999.90;999.90;;;26.60;57.00;;;;;;4979114;28;20045;-74
2022/09/02 10:59:22;;;;;;;1999.90;999.90;;;26.50;57.40;;;;;;4978796;28;20562;-74
2022/09/02 11:01:51;;;;;;;1999.90;999.90;;;26.60;57.40;;;;;;4981010;28;20042;-74
2022/09/02 11:04:45;;;;;;;1999.90;999.90;;;26.70;57.90;;;;;;5004620;28;20045;-74
2022/09/02 11:07:18;;;;;;;1999.90;999.90;;;26.90;57.90;;;;;;4974536;28;20252;-74
2022/09/02 11:09:56;;;;;;;1999.90;999.90;;;27.00;58.20;;;;;;4971731;28;20410;-74
2022/09/02 11:12:36;;;;;;;1999.90;999.90;;;27.20;57.20;;;;;;4973733;28;20045;-74
2022/09/02 11:15:10;;;;;;;1999.90;999.90;;;27.20;56.50;;;;;;4988094;28;20052;-73
2022/09/02 11:18:02;;;;;;;1999.90;999.90;;;27.20;55.80;;;;;;4986749;28;20387;-74
2022/09/02 11:21:06;;;;;;;1999.90;999.90;;;27.20;56.40;;;;;;4990173;28;20111;-74
2022/09/02 11:23:50;;;;;;;1999.90;999.90;;;27.20;54.70;;;;;;4888031;29;20114;-74
2022/09/02 11:26:22;;;;;;;1999.90;999.90;;;27.20;53.80;;;;;;4882898;29;20131;-74
2022/09/02 11:29:14;;;;;;;1999.90;999.90;;;27.20;55.00;;;;;;4962058;28;20046;-74
2022/09/02 11:31:48;;;;;;;1999.90;999.90;;;27.30;54.60;;;;;;4947392;28;20057;-74
2022/09/02 11:34:43;;;;;;;1999.90;999.90;;;27.50;55.50;;;;;;4940715;28;20086;-74
2022/09/02 11:37:23;;;;;;;1999.90;999.90;;;27.50;55.00;;;;;;4954010;28;20542;-74
2022/09/02 11:39:54;;;;;;;1999.90;999.90;;;27.70;58.10;;;;;;4941628;28;20058;-73
2022/09/02 11:42:36;;;;;;;1999.90;999.90;;;26.80;60.00;;;;;;4956863;28;20062;-74
2022/09/02 11:45:10;;;;;;;1999.90;999.90;;;24.90;60.30;;;;;;4949916;28;20501;-73
2022/09/02 11:47:45;;;;;;;1999.90;999.90;;;23.40;64.20;;;;;;4958278;28;20062;-73
2022/09/02 11:50:44;;;;;;;1999.90;999.90;;;22.50;68.30;;;;;;4944738;28;20048;-74
2022/09/02 11:53:13;;;;;;;1999.90;999.90;;;21.70;73.30;;;;;;4936905;28;20097;-74
2022/09/02 11:56:00;;;;;;;1999.90;999.90;;;21.10;80.70;;;;;;4973838;28;20045;-74
2022/09/02 11:58:37;;;;;;;1999.90;999.90;;;20.80;88.60;;;;;;4946190;28;20047;-73
2022/09/02 12:01:14;;;;;;;1999.90;999.90;;;20.60;92.60;;;;;;5038754;28;20525;-74
2022/09/02 12:04:17;;;;;;;1999.90;999.90;;;20.30;95.80;;;;;;5048480;28;20040;-74
2022/09/02 12:07:05;;;;;;;1999.90;999.90;;;20.20;95.40;;;;;;5068212;28;20039;-74
2022/09/02 12:09:45;;;;;;;1999.90;999.90;;;19.90;99.90;;;;;;5069255;28;20490;-74
2022/09/02 12:12:37;;;;;;;1999.90;999.90;;;19.80;99.90;;;;;;5052085;28;20077;-74
2022/09/02 12:15:06;;;;;;;1999.90;999.90;;;19.80;99.90;;;;;;5063307;28;20093;-77
2022/09/02 12:18:05;;;;;;;1999.90;999.90;;;19.70;99.90;;;;;;5070375;28;20495;-76